createdAt,value
2019-05-09T00:00:34.535Z,9.59
2019-05-09T00:01:38.237Z,9.57
2019-05-09T00:02:43.653Z,9.57
2019-05-09T00:03:47.287Z,9.50
2019-05-09T00:04:53.145Z,9.43
2019-05-09T00:05:56.434Z,9.43
2019-05-09T00:07:00.198Z,9.42
2019-05-09T00:08:03.846Z,9.42
2019-05-09T00:09:07.587Z,9.43
2019-05-09T00:10:11.425Z,9.42
2019-05-09T00:11:15.127Z,9.39
2019-05-09T00:12:19.345Z,9.45
2019-05-09T00:13:23.781Z,9.39
2019-05-09T00:14:27.602Z,9.39
2019-05-09T00:15:33.282Z,9.44
2019-05-09T00:16:37.217Z,9.43
2019-05-09T00:17:40.916Z,9.39
2019-05-09T00:18:44.552Z,9.39
2019-05-09T00:19:48.564Z,9.19
2019-05-09T00:20:54.062Z,9.20
2019-05-09T00:21:57.738Z,8.93
2019-05-09T00:23:03.264Z,8.93
2019-05-09T00:24:06.830Z,8.91
2019-05-09T00:25:10.489Z,8.91
2019-05-09T00:26:14.478Z,8.91
2019-05-09T00:27:18.134Z,8.87
2019-05-09T00:28:23.624Z,8.89
2019-05-09T00:29:46.895Z,8.97
2019-05-09T00:30:55.229Z,9.02
2019-05-09T00:32:09.462Z,9.07
2019-05-09T00:33:14.313Z,9.09
2019-05-09T00:34:35.688Z,9.12
2019-05-09T00:35:39.504Z,9.14
2019-05-09T00:36:43.779Z,9.12
2019-05-09T00:37:55.347Z,9.11
2019-05-09T00:38:59.077Z,9.11
2019-05-09T00:40:04.065Z,9.11
2019-05-09T00:41:07.787Z,9.10
2019-05-09T00:42:13.537Z,9.10
2019-05-09T00:43:16.836Z,9.09
2019-05-09T00:44:23.256Z,8.95
2019-05-09T00:45:34.445Z,8.96
2019-05-09T00:46:43.163Z,8.94
2019-05-09T00:47:46.856Z,8.96
2019-05-09T00:48:53.354Z,8.96
2019-05-09T00:49:57.092Z,8.98
2019-05-09T00:51:00.715Z,9.01
2019-05-09T00:52:04.365Z,9.01
2019-05-09T00:53:07.925Z,9.02
2019-05-09T00:54:13.498Z,8.99
2019-05-09T00:55:17.006Z,9.05
2019-05-09T00:56:21.022Z,9.02
2019-05-09T00:57:33.644Z,9.02
2019-05-09T00:58:37.306Z,9.01
2019-05-09T00:59:40.972Z,8.99
2019-05-09T01:00:44.665Z,8.99
2019-05-09T01:01:48.687Z,8.98
2019-05-09T01:02:54.188Z,8.95
2019-05-09T01:03:57.675Z,8.93
2019-05-09T01:05:04.015Z,8.91
2019-05-09T01:06:06.873Z,8.91
2019-05-09T01:07:10.463Z,8.91
2019-05-09T01:08:14.184Z,8.91
2019-05-09T01:09:18.019Z,8.90
2019-05-09T01:10:23.697Z,8.91
2019-05-09T01:11:27.151Z,8.91
2019-05-09T01:12:30.843Z,8.86
2019-05-09T01:13:34.476Z,8.78
2019-05-09T01:14:38.108Z,8.78
2019-05-09T01:15:43.880Z,8.81
2019-05-09T01:16:47.185Z,8.81
2019-05-09T01:17:53.437Z,8.81
2019-05-09T01:18:56.996Z,8.80
2019-05-09T01:20:03.080Z,8.81
2019-05-09T01:21:06.034Z,8.80
2019-05-09T01:22:09.727Z,8.68
2019-05-09T01:23:14.286Z,8.67
2019-05-09T01:24:18.201Z,8.71
2019-05-09T01:25:23.868Z,8.75
2019-05-09T01:26:27.233Z,8.79
2019-05-09T01:27:30.945Z,8.79
2019-05-09T01:28:34.582Z,8.79
2019-05-09T01:29:38.209Z,8.77
2019-05-09T01:30:43.848Z,8.76
2019-05-09T01:31:47.691Z,8.78
2019-05-09T01:32:53.936Z,8.82
2019-05-09T01:34:14.435Z,8.84
2019-05-09T01:35:18.088Z,8.85
2019-05-09T01:36:23.501Z,8.82
2019-05-09T01:37:27.131Z,8.80
2019-05-09T01:38:30.773Z,8.80
2019-05-09T01:39:35.702Z,8.79
2019-05-09T01:40:39.830Z,8.81
2019-05-09T01:41:43.685Z,8.80
2019-05-09T01:42:48.024Z,8.81
2019-05-09T01:43:53.652Z,8.85
2019-05-09T01:44:57.032Z,8.84
2019-05-09T01:46:00.668Z,8.84
2019-05-09T01:47:04.663Z,8.82
2019-05-09T01:48:08.345Z,8.79
2019-05-09T01:49:13.850Z,8.80
2019-05-09T01:50:17.347Z,8.81
2019-05-09T01:51:23.150Z,8.81
2019-05-09T01:52:26.400Z,8.81
2019-05-09T01:53:33.421Z,8.81
2019-05-09T01:54:38.500Z,8.86
2019-05-09T01:56:03.689Z,8.89
2019-05-09T01:57:07.222Z,8.88
2019-05-09T01:58:10.851Z,8.84
2019-05-09T01:59:14.519Z,8.74
2019-05-09T02:00:18.424Z,8.73
2019-05-09T02:01:24.050Z,8.73
2019-05-09T02:02:27.524Z,8.75
2019-05-09T02:03:33.496Z,8.77
2019-05-09T02:04:36.599Z,8.63
2019-05-09T02:05:40.221Z,8.60
2019-05-09T02:06:44.110Z,8.61
2019-05-09T02:07:47.792Z,8.55
2019-05-09T02:08:51.496Z,8.60
2019-05-09T02:09:55.127Z,8.63
2019-05-09T02:10:59.155Z,8.69
2019-05-09T02:12:03.891Z,8.68
2019-05-09T02:13:07.893Z,8.71
2019-05-09T02:14:13.599Z,8.71
2019-05-09T02:15:24.772Z,8.74
2019-05-09T02:16:36.088Z,8.72
2019-05-09T02:17:54.877Z,8.74
2019-05-09T02:19:04.038Z,8.75
2019-05-09T02:20:08.424Z,8.74
2019-05-09T02:21:14.425Z,8.74
2019-05-09T02:22:36.339Z,8.71
2019-05-09T02:23:39.963Z,8.71
2019-05-09T02:24:44.116Z,8.71
2019-05-09T02:25:48.159Z,8.68
2019-05-09T02:26:53.336Z,8.64
2019-05-09T02:27:57.511Z,8.63
2019-05-09T02:29:03.231Z,8.65
2019-05-09T02:30:15.382Z,8.62
2019-05-09T02:31:17.457Z,8.59
2019-05-09T02:32:23.758Z,8.59
2019-05-09T02:33:26.492Z,8.59
2019-05-09T02:34:30.130Z,8.59
2019-05-09T02:35:41.637Z,8.55
2019-05-09T02:36:39.525Z,8.56
2019-05-09T02:37:43.538Z,8.55
2019-05-09T02:38:48.715Z,8.57
2019-05-09T02:39:53.054Z,8.58
2019-05-09T02:40:59.472Z,8.51
2019-05-09T02:42:09.496Z,8.51
2019-05-09T02:43:09.920Z,8.51
2019-05-09T02:44:12.820Z,8.55
2019-05-09T02:45:19.113Z,8.57
2019-05-09T02:46:29.094Z,8.58
2019-05-09T02:47:32.269Z,8.60
2019-05-09T02:48:38.599Z,8.59
2019-05-09T02:49:41.688Z,8.59
2019-05-09T02:50:48.234Z,8.58
2019-05-09T02:51:50.696Z,8.60
2019-05-09T02:52:54.457Z,8.63
2019-05-09T02:53:58.700Z,8.62
2019-05-09T02:55:02.663Z,8.61
2019-05-09T02:56:09.063Z,8.60
2019-05-09T02:57:11.756Z,8.61
2019-05-09T02:58:20.445Z,8.61
2019-05-09T02:59:29.694Z,8.61
2019-05-09T03:00:52.293Z,8.60
2019-05-09T03:02:12.765Z,8.62
2019-05-09T03:03:19.894Z,8.59
2019-05-09T03:04:23.403Z,8.57
2019-05-09T03:05:29.644Z,8.55
2019-05-09T03:06:32.541Z,8.57
2019-05-09T03:07:51.843Z,8.57
2019-05-09T03:08:55.602Z,8.57
2019-05-09T03:10:00.194Z,8.55
2019-05-09T03:11:03.877Z,8.52
2019-05-09T03:12:22.683Z,8.53
2019-05-09T03:13:13.247Z,8.59
2019-05-09T03:14:19.492Z,8.60
2019-05-09T03:15:22.979Z,8.61
2019-05-09T03:16:29.368Z,8.61
2019-05-09T03:17:32.084Z,8.64
2019-05-09T03:18:38.704Z,8.65
2019-05-09T03:19:41.241Z,8.68
2019-05-09T03:20:49.201Z,8.70
2019-05-09T03:22:03.528Z,8.74
2019-05-09T03:23:09.210Z,8.74
2019-05-09T03:24:12.520Z,8.67
2019-05-09T03:25:19.002Z,8.64
2019-05-09T03:26:23.184Z,8.65
2019-05-09T03:27:28.941Z,8.68
2019-05-09T03:28:48.964Z,8.70
2019-05-09T03:29:53.888Z,8.72
2019-05-09T03:31:01.868Z,8.69
2019-05-09T03:32:09.206Z,8.72
2019-05-09T03:33:11.225Z,8.72
2019-05-09T03:34:14.853Z,8.75
2019-05-09T03:35:18.863Z,8.76
2019-05-09T03:36:22.604Z,8.78
2019-05-09T03:37:27.829Z,8.81
2019-05-09T03:38:31.606Z,8.83
2019-05-09T03:39:37.724Z,8.83
2019-05-09T03:40:41.085Z,8.85
2019-05-09T03:41:44.758Z,8.88
2019-05-09T03:42:52.958Z,8.92
2019-05-09T03:43:58.607Z,8.93
2019-05-09T03:45:02.049Z,8.93
2019-05-09T03:46:10.205Z,8.92
2019-05-09T03:47:21.434Z,8.92
2019-05-09T03:48:42.207Z,8.94
2019-05-09T03:49:47.704Z,8.94
2019-05-09T03:50:51.419Z,8.94
2019-05-09T03:51:55.370Z,8.94
2019-05-09T03:52:59.398Z,8.94
2019-05-09T03:54:03.030Z,8.96
2019-05-09T03:55:10.554Z,8.88
2019-05-09T03:56:19.357Z,8.71
2019-05-09T03:57:30.481Z,8.55
2019-05-09T03:58:34.179Z,8.37
2019-05-09T03:59:38.207Z,8.15
2019-05-09T04:00:41.993Z,8.08
2019-05-09T04:01:47.796Z,7.97
2019-05-09T04:02:51.038Z,7.88
2019-05-09T04:03:54.839Z,7.89
2019-05-09T04:04:58.851Z,7.86
2019-05-09T04:06:03.227Z,7.79
2019-05-09T04:07:08.422Z,7.71
2019-05-09T04:08:19.872Z,7.71
2019-05-09T04:09:23.647Z,7.71
2019-05-09T04:10:28.214Z,7.59
2019-05-09T04:11:31.864Z,7.56
2019-05-09T04:12:37.431Z,7.61
2019-05-09T04:13:54.604Z,7.66
2019-05-09T04:14:58.492Z,7.58
2019-05-09T04:16:02.190Z,7.53
2019-05-09T04:17:07.906Z,7.39
2019-05-09T04:18:11.206Z,7.26
2019-05-09T04:19:14.911Z,7.20
2019-05-09T04:20:18.567Z,7.17
2019-05-09T04:21:23.670Z,7.23
2019-05-09T04:22:27.697Z,7.24
2019-05-09T04:23:31.636Z,7.18
2019-05-09T04:24:38.096Z,7.12
2019-05-09T04:26:52.648Z,7.21
2019-05-09T04:27:58.333Z,7.16
2019-05-09T04:29:01.726Z,7.13
2019-05-09T04:30:09.432Z,7.17
2019-05-09T04:31:13.414Z,7.25
2019-05-09T04:32:18.280Z,7.31
2019-05-09T04:33:22.163Z,7.39
2019-05-09T04:34:27.594Z,7.46
2019-05-09T04:35:31.601Z,7.47
2019-05-09T04:36:41.373Z,7.61
2019-05-09T04:37:45.020Z,7.69
2019-05-09T04:38:48.723Z,7.73
2019-05-09T04:39:54.087Z,7.75
2019-05-09T04:40:58.368Z,7.70
2019-05-09T04:42:05.459Z,7.76
2019-05-09T04:43:14.269Z,7.78
2019-05-09T04:44:20.949Z,7.84
2019-05-09T04:45:42.857Z,7.82
2019-05-09T04:46:48.021Z,7.87
2019-05-09T04:47:51.843Z,7.90
2019-05-09T04:48:59.370Z,8.01
2019-05-09T04:50:00.898Z,8.09
2019-05-09T04:51:07.865Z,8.19
2019-05-09T04:52:12.056Z,8.18
2019-05-09T04:53:15.682Z,8.20
2019-05-09T04:54:19.842Z,8.23
2019-05-09T04:55:24.460Z,8.29
2019-05-09T04:56:32.704Z,8.34
2019-05-09T04:57:38.252Z,8.32
2019-05-09T04:58:41.725Z,8.32
2019-05-09T04:59:47.398Z,8.33
2019-05-09T05:01:10.821Z,8.31
2019-05-09T05:02:21.955Z,8.33
2019-05-09T05:03:25.547Z,8.30
2019-05-09T05:04:29.220Z,8.29
2019-05-09T05:05:32.866Z,8.31
2019-05-09T05:06:40.234Z,8.34
2019-05-09T05:07:41.877Z,8.50
2019-05-09T05:08:47.819Z,8.61
2019-05-09T05:09:51.012Z,8.61
2019-05-09T05:10:54.639Z,8.56
2019-05-09T05:11:58.881Z,8.59
2019-05-09T05:13:03.955Z,8.62
2019-05-09T05:14:09.437Z,8.86
2019-05-09T05:15:13.748Z,8.96
2019-05-09T05:16:18.436Z,9.04
2019-05-09T05:17:22.367Z,8.96
2019-05-09T05:18:28.286Z,8.90
2019-05-09T05:19:35.475Z,8.94
2019-05-09T05:20:38.071Z,8.96
2019-05-09T05:21:41.778Z,9.12
2019-05-09T05:22:57.951Z,9.31
2019-05-09T05:24:02.689Z,9.41
2019-05-09T05:25:09.280Z,9.52
2019-05-09T05:26:12.393Z,9.56
2019-05-09T05:27:18.642Z,9.75
2019-05-09T05:28:21.948Z,9.75
2019-05-09T05:29:28.035Z,9.83
2019-05-09T05:30:31.021Z,9.88
2019-05-09T05:31:35.087Z,9.88
2019-05-09T05:32:43.142Z,9.75
2019-05-09T05:33:53.869Z,9.75
2019-05-09T05:34:58.448Z,9.76
2019-05-09T05:36:09.997Z,9.88
2019-05-09T05:37:13.931Z,9.98
2019-05-09T05:38:17.800Z,10.02
2019-05-09T05:39:21.414Z,10.02
2019-05-09T05:40:25.066Z,10.02
2019-05-09T05:41:28.697Z,10.12
2019-05-09T05:42:32.371Z,10.17
2019-05-09T05:43:43.337Z,10.21
2019-05-09T05:44:41.392Z,10.21
2019-05-09T05:45:47.955Z,10.34
2019-05-09T05:47:08.328Z,10.40
2019-05-09T05:48:13.649Z,10.78
2019-05-09T05:49:18.628Z,10.84
2019-05-09T05:50:22.477Z,10.90
2019-05-09T05:51:27.724Z,10.90
2019-05-09T05:52:31.619Z,11.04
2019-05-09T05:53:38.036Z,11.04
2019-05-09T05:54:42.130Z,11.10
2019-05-09T05:55:48.601Z,11.27
2019-05-09T05:56:51.608Z,11.42
2019-05-09T05:57:57.725Z,11.48
2019-05-09T05:59:00.673Z,11.67
2019-05-09T06:00:07.940Z,11.77
2019-05-09T06:01:12.029Z,11.77
2019-05-09T06:02:17.759Z,11.86
2019-05-09T06:03:21.065Z,11.88
2019-05-09T06:04:24.740Z,11.88
2019-05-09T06:05:28.364Z,12.06
2019-05-09T06:06:33.088Z,12.09
2019-05-09T06:07:37.847Z,12.19
2019-05-09T06:08:41.988Z,12.31
2019-05-09T06:09:47.694Z,12.38
2019-05-09T06:10:51.026Z,12.55
2019-05-09T06:11:54.662Z,12.52
2019-05-09T06:12:58.371Z,12.52
2019-05-09T06:14:08.648Z,12.59
2019-05-09T06:15:07.838Z,12.70
2019-05-09T06:16:11.826Z,12.84
2019-05-09T06:17:17.949Z,12.96
2019-05-09T06:18:20.931Z,13.05
2019-05-09T06:19:24.768Z,13.20
2019-05-09T06:20:28.443Z,13.28
2019-05-09T06:21:32.080Z,13.30
2019-05-09T06:22:38.156Z,13.36
2019-05-09T06:23:41.426Z,13.47
2019-05-09T06:24:45.060Z,13.44
2019-05-09T06:25:48.831Z,13.56
2019-05-09T06:26:52.423Z,13.58
2019-05-09T06:27:58.250Z,13.58
2019-05-09T06:29:01.808Z,13.67
2019-05-09T06:30:08.634Z,13.75
2019-05-09T06:31:12.879Z,13.83
2019-05-09T06:32:18.882Z,13.99
2019-05-09T06:33:21.987Z,14.08
2019-05-09T06:34:30.412Z,14.09
2019-05-09T06:35:31.205Z,14.09
2019-05-09T06:36:34.849Z,14.20
2019-05-09T06:37:38.569Z,14.32
2019-05-09T06:38:42.245Z,14.40
2019-05-09T06:39:45.875Z,14.48
2019-05-09T06:40:49.550Z,14.60
2019-05-09T06:41:53.209Z,14.67
2019-05-09T06:42:59.829Z,14.74
2019-05-09T06:44:14.200Z,14.73
2019-05-09T06:45:19.671Z,14.73
2019-05-09T06:46:30.867Z,15.01
2019-05-09T06:47:38.097Z,15.01
2019-05-09T06:48:42.534Z,15.27
2019-05-09T06:49:50.067Z,15.43
2019-05-09T06:50:53.826Z,15.51
2019-05-09T06:51:58.056Z,15.65
2019-05-09T06:53:01.818Z,15.75
2019-05-09T06:54:05.513Z,15.74
2019-05-09T06:55:09.348Z,15.77
2019-05-09T06:56:13.006Z,15.82
2019-05-09T06:57:18.692Z,15.87
2019-05-09T06:58:38.324Z,15.82
2019-05-09T06:59:42.194Z,15.80
2019-05-09T07:00:48.913Z,15.99
2019-05-09T07:01:54.342Z,16.11
2019-05-09T07:03:00.811Z,16.23
2019-05-09T07:04:06.343Z,16.20
2019-05-09T07:05:11.833Z,16.16
2019-05-09T07:06:17.758Z,16.14
2019-05-09T07:07:23.218Z,16.16
2019-05-09T07:08:44.541Z,16.21
2019-05-09T07:09:52.919Z,16.18
2019-05-09T07:10:58.434Z,16.17
2019-05-09T07:12:02.686Z,16.09
2019-05-09T07:13:07.967Z,16.10
2019-05-09T07:14:33.190Z,16.07
2019-05-09T07:15:37.654Z,16.11
2019-05-09T07:16:41.501Z,16.28
2019-05-09T07:17:45.128Z,16.37
2019-05-09T07:18:50.818Z,16.49
2019-05-09T07:19:54.527Z,16.54
2019-05-09T07:20:58.237Z,16.51
2019-05-09T07:22:18.192Z,16.51
2019-05-09T07:23:21.279Z,16.46
2019-05-09T07:24:24.839Z,16.48
2019-05-09T07:25:37.771Z,16.38
2019-05-09T07:26:41.564Z,16.42
2019-05-09T07:27:48.376Z,16.49
2019-05-09T07:28:52.125Z,16.54
2019-05-09T07:29:58.223Z,16.60
2019-05-09T07:31:23.475Z,16.59
2019-05-09T07:32:28.775Z,16.61
2019-05-09T07:33:51.955Z,16.66
2019-05-09T07:34:57.924Z,16.73
2019-05-09T07:36:01.695Z,16.90
2019-05-09T07:37:05.394Z,16.93
2019-05-09T07:38:09.053Z,16.89
2019-05-09T07:39:13.005Z,16.85
2019-05-09T07:40:18.063Z,16.72
2019-05-09T07:41:22.109Z,16.81
2019-05-09T07:42:28.351Z,16.80
2019-05-09T07:43:31.346Z,16.89
2019-05-09T07:44:46.205Z,17.00
2019-05-09T07:45:42.102Z,17.05
2019-05-09T07:46:47.520Z,17.05
2019-05-09T07:47:51.168Z,17.05
2019-05-09T07:48:57.806Z,17.12
2019-05-09T07:50:01.700Z,17.15
2019-05-09T07:51:07.816Z,17.12
2019-05-09T07:52:13.990Z,17.14
2019-05-09T07:53:17.792Z,17.27
2019-05-09T07:54:25.555Z,17.45
2019-05-09T07:55:27.520Z,17.51
2019-05-09T07:56:31.285Z,17.56
2019-05-09T07:57:35.034Z,17.71
2019-05-09T07:58:38.813Z,17.83
2019-05-09T07:59:42.510Z,17.89
2019-05-09T08:00:48.275Z,17.95
2019-05-09T08:01:51.641Z,18.02
2019-05-09T08:02:55.342Z,17.99
2019-05-09T08:03:59.252Z,17.98
2019-05-09T08:05:02.858Z,18.14
2019-05-09T08:06:08.698Z,18.16
2019-05-09T08:07:12.219Z,18.16
2019-05-09T08:08:18.631Z,18.28
2019-05-09T08:09:22.916Z,18.45
2019-05-09T08:10:30.611Z,18.69
2019-05-09T08:11:32.437Z,18.89
2019-05-09T08:12:38.710Z,19.00
2019-05-09T08:13:41.519Z,19.00
2019-05-09T08:14:45.190Z,18.99
2019-05-09T08:15:48.832Z,19.13
2019-05-09T08:16:52.553Z,19.25
2019-05-09T08:17:58.928Z,19.22
2019-05-09T08:19:02.358Z,19.16
2019-05-09T08:20:07.915Z,19.26
2019-05-09T08:21:12.264Z,19.39
2019-05-09T08:22:21.215Z,19.39
2019-05-09T08:23:21.369Z,19.37
2019-05-09T08:24:27.564Z,19.47
2019-05-09T08:25:30.719Z,19.51
2019-05-09T08:26:34.398Z,19.47
2019-05-09T08:27:38.128Z,19.56
2019-05-09T08:28:41.751Z,19.62
2019-05-09T08:29:47.721Z,19.54
2019-05-09T08:30:50.804Z,19.54
2019-05-09T08:31:54.506Z,19.58
2019-05-09T08:32:59.903Z,19.63
2019-05-09T08:34:03.932Z,19.48
2019-05-09T08:35:08.423Z,19.43
2019-05-09T08:36:12.464Z,19.51
2019-05-09T08:37:17.559Z,19.61
2019-05-09T08:38:21.368Z,19.68
2019-05-09T08:39:27.512Z,19.70
2019-05-09T08:40:30.496Z,19.75
2019-05-09T08:41:34.287Z,19.91
2019-05-09T08:42:38.061Z,19.98
2019-05-09T08:43:43.042Z,19.98
2019-05-09T08:44:48.275Z,20.24
2019-05-09T08:45:51.928Z,20.27
2019-05-09T08:46:57.422Z,20.27
2019-05-09T08:48:01.259Z,20.34
2019-05-09T08:49:07.971Z,20.38
2019-05-09T08:50:13.322Z,20.51
2019-05-09T08:51:18.929Z,20.55
2019-05-09T08:52:22.689Z,20.64
2019-05-09T08:53:27.573Z,20.73
2019-05-09T08:54:37.853Z,20.70
2019-05-09T08:55:41.003Z,20.74
2019-05-09T08:56:44.731Z,20.73
2019-05-09T08:57:48.529Z,20.74
2019-05-09T08:58:52.222Z,20.81
2019-05-09T08:59:58.978Z,20.75
2019-05-09T09:01:04.463Z,20.82
2019-05-09T09:02:14.816Z,20.97
2019-05-09T09:03:13.666Z,21.10
2019-05-09T09:04:18.934Z,21.15
2019-05-09T09:05:22.777Z,21.22
2019-05-09T09:06:27.835Z,21.29
2019-05-09T09:07:32.088Z,21.31
2019-05-09T09:08:37.958Z,21.44
2019-05-09T09:09:41.754Z,21.54
2019-05-09T09:10:45.443Z,21.53
2019-05-09T09:11:49.136Z,21.45
2019-05-09T09:12:52.794Z,21.35
2019-05-09T09:13:57.656Z,21.28
2019-05-09T09:15:01.693Z,21.13
2019-05-09T09:16:15.814Z,21.11
2019-05-09T09:17:12.633Z,21.11
2019-05-09T09:18:17.989Z,21.07
2019-05-09T09:19:24.426Z,21.18
2019-05-09T09:20:28.799Z,21.20
2019-05-09T09:21:32.796Z,21.13
2019-05-09T09:22:37.568Z,20.97
2019-05-09T09:23:47.152Z,20.93
2019-05-09T09:24:59.205Z,20.91
2019-05-09T09:26:02.921Z,20.62
2019-05-09T09:27:07.747Z,20.45
2019-05-09T09:28:11.617Z,20.40
2019-05-09T09:29:17.729Z,20.44
2019-05-09T09:30:25.124Z,20.43
2019-05-09T09:31:29.047Z,20.49
2019-05-09T09:32:32.690Z,20.41
2019-05-09T09:33:37.872Z,20.36
2019-05-09T09:34:42.517Z,20.29
2019-05-09T09:35:48.697Z,20.23
2019-05-09T09:36:51.893Z,20.15
2019-05-09T09:37:57.774Z,20.10
2019-05-09T09:39:02.954Z,19.96
2019-05-09T09:40:08.632Z,19.93
2019-05-09T09:41:12.473Z,19.84
2019-05-09T09:42:20.055Z,19.75
2019-05-09T09:43:22.287Z,19.70
2019-05-09T09:44:28.483Z,19.66
2019-05-09T09:45:31.340Z,19.75
2019-05-09T09:46:37.328Z,19.83
2019-05-09T09:47:40.765Z,19.79
2019-05-09T09:48:44.577Z,19.66
2019-05-09T09:49:49.117Z,19.49
2019-05-09T09:50:53.014Z,19.32
2019-05-09T09:51:58.139Z,19.25
2019-05-09T09:53:02.008Z,19.22
2019-05-09T09:54:08.553Z,19.12
2019-05-09T09:55:11.316Z,19.09
2019-05-09T09:56:17.665Z,19.02
2019-05-09T09:57:20.773Z,19.13
2019-05-09T09:58:24.439Z,19.05
2019-05-09T09:59:29.804Z,19.06
2019-05-09T10:00:58.204Z,19.12
2019-05-09T10:02:02.997Z,19.11
2019-05-09T10:03:08.422Z,19.26
2019-05-09T10:04:20.740Z,19.16
2019-05-09T10:05:19.114Z,19.20
2019-05-09T10:06:23.163Z,19.10
2019-05-09T10:07:27.959Z,19.09
2019-05-09T10:08:31.785Z,19.06
2019-05-09T10:09:35.735Z,19.11
2019-05-09T10:10:39.499Z,19.13
2019-05-09T10:11:43.603Z,19.14
2019-05-09T10:12:49.389Z,19.18
2019-05-09T10:13:52.732Z,19.20
2019-05-09T10:15:01.032Z,19.23
2019-05-09T10:16:09.729Z,19.28
2019-05-09T10:17:13.432Z,19.32
2019-05-09T10:18:38.125Z,19.48
2019-05-09T10:19:49.781Z,19.57
2019-05-09T10:20:58.681Z,19.57
2019-05-09T10:22:08.441Z,19.50
2019-05-09T10:23:18.179Z,19.52
2019-05-09T10:24:17.596Z,19.52
2019-05-09T10:25:21.709Z,19.36
2019-05-09T10:26:25.357Z,19.28
2019-05-09T10:27:29.304Z,19.18
2019-05-09T10:28:32.985Z,19.27
2019-05-09T10:29:38.859Z,19.38
2019-05-09T10:30:42.911Z,19.43
2019-05-09T10:31:48.774Z,19.32
2019-05-09T10:32:52.054Z,19.18
2019-05-09T10:33:57.820Z,19.34
2019-05-09T10:35:01.463Z,19.36
2019-05-09T10:36:06.147Z,19.35
2019-05-09T10:37:10.923Z,19.18
2019-05-09T10:38:14.703Z,19.08
2019-05-09T10:39:18.794Z,19.13
2019-05-09T10:40:28.054Z,19.05
2019-05-09T10:41:31.759Z,19.04
2019-05-09T10:42:37.907Z,19.00
2019-05-09T10:43:50.926Z,18.91
2019-05-09T10:45:14.257Z,18.66
2019-05-09T10:46:48.414Z,18.57
2019-05-09T10:47:38.180Z,18.42
2019-05-09T10:48:43.541Z,18.49
2019-05-09T10:49:49.709Z,18.50
2019-05-09T10:50:54.718Z,18.43
2019-05-09T10:51:58.889Z,18.22
2019-05-09T10:53:02.791Z,18.17
2019-05-09T10:54:08.107Z,18.15
2019-05-09T10:55:12.160Z,18.15
2019-05-09T10:56:18.376Z,18.14
2019-05-09T10:57:21.414Z,18.10
2019-05-09T10:58:25.181Z,18.09
2019-05-09T10:59:29.323Z,18.07
2019-05-09T11:00:33.091Z,17.96
2019-05-09T11:01:38.226Z,17.90
2019-05-09T11:02:42.349Z,17.89
2019-05-09T11:03:48.269Z,17.91
2019-05-09T11:04:51.499Z,17.90
2019-05-09T11:05:57.949Z,18.00
2019-05-09T11:07:01.757Z,18.02
2019-05-09T11:08:08.113Z,18.04
2019-05-09T11:09:11.793Z,18.02
2019-05-09T11:10:25.689Z,18.02
2019-05-09T11:11:21.537Z,18.07
2019-05-09T11:12:27.523Z,18.03
2019-05-09T11:13:30.838Z,18.00
2019-05-09T11:14:44.970Z,17.93
2019-05-09T11:15:49.097Z,17.86
2019-05-09T11:17:06.683Z,17.93
2019-05-09T11:17:58.409Z,17.97
2019-05-09T11:19:02.790Z,18.02
2019-05-09T11:20:08.882Z,17.95
2019-05-09T11:21:13.252Z,17.94
2019-05-09T11:22:18.295Z,17.98
2019-05-09T11:23:22.197Z,17.96
2019-05-09T11:24:40.586Z,17.99
2019-05-09T11:25:31.333Z,17.98
2019-05-09T11:26:39.545Z,17.88
2019-05-09T11:27:41.979Z,17.71
2019-05-09T11:28:45.664Z,17.63
2019-05-09T11:29:49.991Z,17.68
2019-05-09T11:30:54.082Z,17.71
2019-05-09T11:31:58.746Z,17.65
2019-05-09T11:33:02.610Z,17.64
2019-05-09T11:34:08.849Z,17.56
2019-05-09T11:35:12.275Z,17.46
2019-05-09T11:36:20.813Z,17.39
2019-05-09T11:37:23.093Z,17.44
2019-05-09T11:38:35.089Z,17.41
2019-05-09T11:39:39.038Z,17.41
2019-05-09T11:40:44.588Z,17.44
2019-05-09T11:41:48.810Z,17.48
2019-05-09T11:42:52.715Z,17.45
2019-05-09T11:43:59.199Z,17.37
2019-05-09T11:45:01.947Z,17.24
2019-05-09T11:46:10.268Z,17.24
2019-05-09T11:47:30.907Z,17.23
2019-05-09T11:48:18.555Z,17.12
2019-05-09T11:49:21.840Z,17.04
2019-05-09T11:50:25.636Z,17.10
2019-05-09T11:51:29.620Z,17.16
2019-05-09T11:52:33.391Z,17.16
2019-05-09T11:53:39.966Z,17.20
2019-05-09T11:54:42.503Z,17.18
2019-05-09T11:55:48.325Z,17.19
2019-05-09T11:56:52.106Z,17.18
2019-05-09T11:57:58.786Z,17.18
2019-05-09T11:59:01.170Z,17.17
2019-05-09T12:00:08.292Z,17.15
2019-05-09T12:01:11.988Z,17.12
2019-05-09T12:02:17.919Z,17.13
2019-05-09T12:03:21.078Z,17.02
2019-05-09T12:04:28.161Z,16.98
2019-05-09T12:05:30.244Z,16.90
2019-05-09T12:06:34.039Z,16.91
2019-05-09T12:07:38.158Z,16.87
2019-05-09T12:08:41.937Z,16.71
2019-05-09T12:09:45.594Z,16.73
2019-05-09T12:10:49.233Z,16.79
2019-05-09T12:11:52.927Z,16.83
2019-05-09T12:12:57.647Z,16.83
2019-05-09T12:14:01.433Z,16.83
2019-05-09T12:15:08.917Z,16.76
2019-05-09T12:16:13.111Z,16.69
2019-05-09T12:17:19.602Z,16.57
2019-05-09T12:18:23.580Z,16.49
2019-05-09T12:19:29.503Z,16.45
2019-05-09T12:20:33.230Z,16.45
2019-05-09T12:21:44.941Z,16.42
2019-05-09T12:22:42.438Z,16.40
2019-05-09T12:23:48.589Z,16.43
2019-05-09T12:24:53.811Z,16.41
2019-05-09T12:25:58.226Z,16.43
2019-05-09T12:27:03.018Z,16.45
2019-05-09T12:28:07.888Z,16.45
2019-05-09T12:29:11.815Z,16.39
2019-05-09T12:30:15.675Z,16.39
2019-05-09T12:31:19.357Z,16.41
2019-05-09T12:32:22.998Z,16.31
2019-05-09T12:33:28.810Z,16.24
2019-05-09T12:34:32.101Z,16.18
2019-05-09T12:35:38.257Z,16.11
2019-05-09T12:36:41.216Z,16.11
2019-05-09T12:37:44.844Z,16.16
2019-05-09T12:38:49.732Z,16.14
2019-05-09T12:39:54.164Z,16.07
2019-05-09T12:41:00.579Z,16.06
2019-05-09T12:42:03.313Z,16.08
2019-05-09T12:43:09.101Z,16.13
2019-05-09T12:44:12.343Z,16.07
2019-05-09T12:45:18.006Z,16.09
2019-05-09T12:46:21.391Z,16.05
2019-05-09T12:47:28.852Z,16.04
2019-05-09T12:48:31.354Z,15.99
2019-05-09T12:49:35.048Z,15.90
2019-05-09T12:50:38.867Z,15.84
2019-05-09T12:51:42.614Z,15.87
2019-05-09T12:52:48.783Z,15.82
2019-05-09T12:53:52.113Z,15.87
2019-05-09T12:54:58.133Z,15.89
2019-05-09T12:56:01.602Z,15.90
2019-05-09T12:57:05.356Z,15.91
2019-05-09T12:58:10.996Z,15.87
2019-05-09T12:59:14.742Z,15.92
2019-05-09T13:00:18.898Z,15.97
2019-05-09T13:01:22.658Z,15.99
2019-05-09T13:02:27.890Z,15.95
2019-05-09T13:03:31.617Z,15.93
2019-05-09T13:04:35.253Z,15.92
2019-05-09T13:05:39.057Z,15.91
2019-05-09T13:06:42.725Z,15.98
2019-05-09T13:07:48.080Z,15.98
2019-05-09T13:08:52.471Z,15.94
2019-05-09T13:09:58.219Z,15.92
2019-05-09T13:11:02.612Z,15.93
2019-05-09T13:12:08.644Z,15.85
2019-05-09T13:13:11.834Z,15.89
2019-05-09T13:14:15.559Z,15.85
2019-05-09T13:15:21.370Z,15.87
2019-05-09T13:16:44.269Z,15.95
2019-05-09T13:17:39.416Z,15.97
2019-05-09T13:18:50.964Z,16.03
2019-05-09T13:19:54.629Z,15.99
2019-05-09T13:20:58.299Z,15.96
2019-05-09T13:22:03.455Z,15.96
2019-05-09T13:23:08.899Z,15.98
2019-05-09T13:24:12.756Z,15.92
2019-05-09T13:25:18.755Z,15.86
2019-05-09T13:26:24.623Z,15.85
2019-05-09T13:27:29.251Z,15.81
2019-05-09T13:28:32.958Z,15.78
2019-05-09T13:29:38.040Z,15.82
2019-05-09T13:30:41.899Z,15.85
2019-05-09T13:31:47.931Z,15.86
2019-05-09T13:32:52.726Z,15.92
2019-05-09T13:33:58.331Z,15.96
2019-05-09T13:35:02.114Z,15.93
2019-05-09T13:36:05.921Z,15.88
2019-05-09T13:37:09.694Z,15.84
2019-05-09T13:38:13.331Z,15.81
2019-05-09T13:39:17.980Z,15.80
2019-05-09T13:40:22.337Z,15.73
2019-05-09T13:41:25.960Z,15.76
2019-05-09T13:42:29.642Z,15.75
2019-05-09T13:43:33.476Z,15.81
2019-05-09T13:44:41.267Z,15.84
2019-05-09T13:45:42.469Z,15.83
2019-05-09T13:46:48.602Z,15.91
2019-05-09T13:47:51.720Z,15.93
2019-05-09T13:49:08.291Z,15.99
2019-05-09T13:50:01.155Z,16.09
2019-05-09T13:51:07.721Z,16.15
2019-05-09T13:52:11.429Z,16.12
2019-05-09T13:53:15.442Z,16.15
2019-05-09T13:54:19.211Z,16.19
2019-05-09T13:55:23.264Z,16.21
2019-05-09T13:56:27.958Z,16.15
2019-05-09T13:57:33.357Z,16.18
2019-05-09T13:58:39.673Z,16.09
2019-05-09T13:59:48.364Z,15.96
2019-05-09T14:00:59.052Z,15.92
2019-05-09T14:01:54.545Z,15.98
2019-05-09T14:02:58.213Z,15.98
2019-05-09T14:04:03.203Z,15.94
2019-05-09T14:05:08.856Z,16.07
2019-05-09T14:06:12.900Z,16.11
2019-05-09T14:07:19.417Z,16.17
2019-05-09T14:08:23.409Z,16.08
2019-05-09T14:09:29.226Z,16.08
2019-05-09T14:10:34.677Z,16.07
2019-05-09T14:11:39.376Z,16.01
2019-05-09T14:12:43.086Z,15.97
2019-05-09T14:13:48.716Z,16.07
2019-05-09T14:14:52.295Z,16.10